createdAt,value
2023-03-12T00:00:14.245Z,98690.22
2023-03-12T00:02:42.231Z,98680.69
2023-03-12T00:05:10.525Z,98679.91
2023-03-12T00:07:38.814Z,98670.41
2023-03-12T00:10:06.772Z,98667.94
2023-03-12T00:12:36.953Z,98662.31
2023-03-12T00:15:05.166Z,98663.00
2023-03-12T00:17:32.792Z,98657.91
2023-03-12T00:20:00.374Z,98653.16
2023-03-12T00:22:28.143Z,98653.16
2023-03-12T00:24:57.057Z,98645.94
2023-03-12T00:27:25.032Z,98646.53
2023-03-12T00:29:53.022Z,98651.00
2023-03-12T00:32:20.910Z,98640.97
2023-03-12T00:34:53.619Z,98636.22
2023-03-12T00:37:21.412Z,98628.97
2023-03-12T00:39:49.957Z,98621.81
2023-03-12T00:42:17.964Z,98622.00
2023-03-12T00:44:45.843Z,98611.00
2023-03-12T00:47:13.459Z,98611.47
2023-03-12T00:49:41.303Z,98617.22
2023-03-12T00:52:08.942Z,98615.97
2023-03-12T00:54:36.532Z,98605.19
2023-03-12T00:57:04.284Z,98609.19
2023-03-12T00:59:32.201Z,98603.78
2023-03-12T01:01:59.747Z,98603.78
2023-03-12T01:04:28.329Z,98594.22
2023-03-12T01:06:56.826Z,98591.00
2023-03-12T01:09:24.786Z,98589.66
2023-03-12T01:11:52.421Z,98586.94
2023-03-12T01:14:20.101Z,98582.72
2023-03-12T01:16:49.842Z,98587.00
2023-03-12T01:19:19.395Z,98583.28
2023-03-12T01:21:47.052Z,98568.97
2023-03-12T01:24:14.580Z,98573.75
2023-03-12T01:26:42.090Z,98575.31
2023-03-12T01:29:09.633Z,98583.22
2023-03-12T01:31:37.312Z,98568.38
2023-03-12T01:34:05.171Z,98577.88
2023-03-12T01:36:32.771Z,98583.69
2023-03-12T01:39:00.415Z,98580.47
2023-03-12T01:41:28.986Z,98579.28
2023-03-12T01:43:56.519Z,98581.63
2023-03-12T01:46:31.138Z,98572.34
2023-03-12T01:49:03.216Z,98579.88
2023-03-12T01:51:56.638Z,98565.25
2023-03-12T01:54:32.722Z,98567.03
2023-03-12T01:57:00.538Z,98568.78
2023-03-12T01:59:52.329Z,98562.47
2023-03-12T02:02:23.789Z,98562.31
2023-03-12T02:04:52.062Z,98559.31
2023-03-12T02:07:19.815Z,98563.50
2023-03-12T02:09:50.117Z,98556.69
2023-03-12T02:12:18.174Z,98564.06
2023-03-12T02:14:45.808Z,98543.28
2023-03-12T02:17:14.501Z,98547.91
2023-03-12T02:20:13.926Z,98543.84
2023-03-12T02:22:42.616Z,98546.44
2023-03-12T02:25:37.783Z,98534.91
2023-03-12T02:28:10.214Z,98537.22
2023-03-12T02:30:42.845Z,98531.53
2023-03-12T02:33:24.535Z,98523.72
2023-03-12T02:35:52.431Z,98542.94
2023-03-12T02:38:40.232Z,98536.09
2023-03-12T02:41:24.689Z,98526.31
2023-03-12T02:44:19.611Z,98531.53
2023-03-12T02:46:51.889Z,98529.28
2023-03-12T02:49:20.942Z,98538.66
2023-03-12T02:51:49.723Z,98529.84
2023-03-12T02:54:18.245Z,98525.13
2023-03-12T02:56:46.665Z,98517.53
2023-03-12T02:59:14.963Z,98517.34
2023-03-12T03:01:44.633Z,98520.50
2023-03-12T03:04:12.586Z,98513.94
2023-03-12T03:06:41.412Z,98508.47
2023-03-12T03:09:10.891Z,98513.47
2023-03-12T03:11:38.969Z,98511.94
2023-03-12T03:14:07.869Z,98522.41
2023-03-12T03:16:36.212Z,98516.66
2023-03-12T03:19:06.325Z,98515.91
2023-03-12T03:21:33.888Z,98507.97
2023-03-12T03:24:03.279Z,98520.44
2023-03-12T03:26:31.144Z,98523.84
2023-03-12T03:29:03.826Z,98521.63
2023-03-12T03:31:33.433Z,98508.38
2023-03-12T03:34:01.574Z,98514.59
2023-03-12T03:36:29.573Z,98517.56
2023-03-12T03:39:12.036Z,98516.06
2023-03-12T03:41:40.437Z,98505.53
2023-03-12T03:44:08.768Z,98509.38
2023-03-12T03:46:38.762Z,98503.84
2023-03-12T03:49:10.058Z,98500.94
2023-03-12T03:51:42.802Z,98507.25
2023-03-12T03:54:13.522Z,98513.28
2023-03-12T03:56:42.817Z,98505.47
2023-03-12T03:59:13.502Z,98506.66
2023-03-12T04:01:43.758Z,98505.00
2023-03-12T04:04:11.686Z,98502.63
2023-03-12T04:06:39.411Z,98498.13
2023-03-12T04:09:07.109Z,98502.50
2023-03-12T04:11:37.299Z,98503.84
2023-03-12T04:14:06.801Z,98511.03
2023-03-12T04:16:38.022Z,98520.00
2023-03-12T04:19:06.569Z,98514.13
2023-03-12T04:21:34.225Z,98517.03
2023-03-12T04:24:01.813Z,98515.13
2023-03-12T04:26:33.591Z,98521.84
2023-03-12T04:29:05.840Z,98514.09
2023-03-12T04:31:34.450Z,98534.16
2023-03-12T04:34:02.146Z,98531.38
2023-03-12T04:36:30.197Z,98529.56
2023-03-12T04:38:58.334Z,98537.13
2023-03-12T04:41:37.009Z,98532.28
2023-03-12T04:44:12.651Z,98544.81
2023-03-12T04:46:41.350Z,98549.66
2023-03-12T04:49:09.992Z,98552.91
2023-03-12T04:51:39.384Z,98557.81
2023-03-12T04:54:10.327Z,98559.78
2023-03-12T04:56:39.921Z,98584.72
2023-03-12T04:59:10.526Z,98614.34
2023-03-12T05:01:39.883Z,98612.22
2023-03-12T05:04:14.089Z,98646.78
2023-03-12T05:06:41.742Z,98655.69
2023-03-12T05:09:09.342Z,98672.38
2023-03-12T05:11:39.846Z,98689.31
2023-03-12T05:14:13.809Z,98679.22
2023-03-12T05:16:43.305Z,98698.66
2023-03-12T05:19:12.271Z,98711.19
2023-03-12T05:21:41.239Z,98712.41
2023-03-12T05:24:10.328Z,98702.91
2023-03-12T05:26:38.369Z,98690.16
2023-03-12T05:29:11.698Z,98689.53
2023-03-12T05:31:39.836Z,98689.81
2023-03-12T05:34:10.376Z,98715.31
2023-03-12T05:36:39.956Z,98755.44
2023-03-12T05:39:08.422Z,98782.66
2023-03-12T05:41:36.523Z,98794.44
2023-03-12T05:44:13.644Z,98794.63
2023-03-12T05:46:43.532Z,98796.63
2023-03-12T05:49:12.405Z,98805.91
2023-03-12T05:51:40.115Z,98816.44
2023-03-12T05:54:08.884Z,98827.41
2023-03-12T05:56:37.062Z,98834.16
2023-03-12T05:59:05.317Z,98850.66
2023-03-12T06:01:33.269Z,98863.69
2023-03-12T06:04:02.888Z,98863.53
2023-03-12T06:06:35.129Z,98888.28
2023-03-12T06:09:04.097Z,98886.13
2023-03-12T06:11:32.761Z,98907.00
2023-03-12T06:14:00.424Z,98920.56
2023-03-12T06:16:28.527Z,98939.50
2023-03-12T06:18:57.967Z,98943.28
2023-03-12T06:21:27.331Z,98942.22
2023-03-12T06:23:55.211Z,98957.00
2023-03-12T06:26:28.046Z,98950.72
2023-03-12T06:28:57.924Z,98962.75
2023-03-12T06:31:25.656Z,98956.44
2023-03-12T06:33:54.087Z,98981.63
2023-03-12T06:36:23.442Z,98974.88
2023-03-12T06:38:51.008Z,98972.94
2023-03-12T06:41:20.502Z,98953.28
2023-03-12T06:43:48.601Z,98970.81
2023-03-12T06:46:19.303Z,98977.03
2023-03-12T06:48:49.059Z,98995.81
2023-03-12T06:51:16.987Z,99003.91
2023-03-12T06:53:45.192Z,99006.88
2023-03-12T06:56:12.946Z,99014.75
2023-03-12T06:58:41.102Z,99022.75
2023-03-12T07:01:08.671Z,99055.47
2023-03-12T07:03:36.700Z,99054.75
2023-03-12T07:06:04.735Z,99048.56
2023-03-12T07:08:33.400Z,99063.06
2023-03-12T07:11:01.966Z,99077.19
2023-03-12T07:13:30.383Z,99062.53
2023-03-12T07:16:01.014Z,99062.63
2023-03-12T07:18:28.594Z,99112.31
2023-03-12T07:20:56.738Z,99115.09
2023-03-12T07:23:24.850Z,99114.00
2023-03-12T07:25:52.559Z,99125.94
2023-03-12T07:28:20.880Z,99133.44
2023-03-12T07:30:52.761Z,99137.41
2023-03-12T07:33:21.298Z,99165.47
2023-03-12T07:35:51.515Z,99164.97
2023-03-12T07:38:20.096Z,99205.34
2023-03-12T07:40:54.704Z,99204.88
2023-03-12T07:43:23.917Z,99229.81
2023-03-12T07:45:54.578Z,99242.13
2023-03-12T07:48:22.609Z,99243.41
2023-03-12T07:50:50.940Z,99248.41
2023-03-12T07:53:18.582Z,99261.19
2023-03-12T07:55:46.837Z,99258.69
2023-03-12T07:58:16.415Z,99277.13
2023-03-12T08:00:46.879Z,99277.94
2023-03-12T08:03:14.899Z,99289.00
2023-03-12T08:05:42.759Z,99290.72
2023-03-12T08:08:11.166Z,99302.19
2023-03-12T08:10:39.044Z,99310.94
2023-03-12T08:13:08.190Z,99313.94
2023-03-12T08:15:36.261Z,99319.13
2023-03-12T08:18:06.577Z,99325.16
2023-03-12T08:20:35.362Z,99323.34
2023-03-12T08:23:03.022Z,99368.28
2023-03-12T08:25:30.646Z,99362.84
2023-03-12T08:27:58.359Z,99367.47
2023-03-12T08:30:29.104Z,99375.78
2023-03-12T08:32:58.160Z,99376.44
2023-03-12T08:35:25.850Z,99389.88
2023-03-12T08:37:53.497Z,99393.41
2023-03-12T08:40:35.457Z,99400.13
2023-03-12T08:43:03.592Z,99412.66
2023-03-12T08:45:31.262Z,99413.47
2023-03-12T08:47:59.039Z,99409.91
2023-03-12T08:50:29.492Z,99435.69
2023-03-12T08:52:57.268Z,99444.25
2023-03-12T08:55:26.378Z,99443.06
2023-03-12T08:57:55.272Z,99437.56
2023-03-12T09:00:23.060Z,99436.91
2023-03-12T09:02:54.401Z,99458.72
2023-03-12T09:05:22.334Z,99464.78
2023-03-12T09:07:50.892Z,99461.66
2023-03-12T09:10:19.841Z,99489.25
2023-03-12T09:12:47.546Z,99496.03
2023-03-12T09:15:19.095Z,99484.69
2023-03-12T09:17:48.180Z,99492.56
2023-03-12T09:20:15.872Z,99490.41
2023-03-12T09:22:43.501Z,99515.28
2023-03-12T09:25:11.424Z,99528.63
2023-03-12T09:27:43.831Z,99529.66
2023-03-12T09:30:16.922Z,99535.03
2023-03-12T09:32:47.273Z,99544.16
2023-03-12T09:35:19.503Z,99534.44
2023-03-12T09:38:09.222Z,99556.97
2023-03-12T09:40:55.756Z,99578.59
2023-03-12T09:43:48.014Z,99568.94
2023-03-12T09:46:45.616Z,99587.06
2023-03-12T09:49:43.545Z,99587.91
2023-03-12T09:52:24.727Z,99602.13
2023-03-12T09:55:18.092Z,99607.00
2023-03-12T09:57:51.472Z,99617.88
2023-03-12T10:00:20.856Z,99609.84
2023-03-12T10:03:03.721Z,99623.56
2023-03-12T10:05:38.455Z,99640.31
2023-03-12T10:08:24.215Z,99653.00
2023-03-12T10:11:03.016Z,99663.34
2023-03-12T10:14:08.580Z,99666.06
2023-03-12T10:17:04.832Z,99666.47
2023-03-12T10:19:35.020Z,99657.66
2023-03-12T10:22:14.384Z,99680.41
2023-03-12T10:24:51.616Z,99682.38
2023-03-12T10:27:19.250Z,99691.44
2023-03-12T10:29:48.676Z,99677.44
2023-03-12T10:32:38.746Z,99682.75
2023-03-12T10:35:26.265Z,99680.78
2023-03-12T10:37:56.448Z,99702.09
2023-03-12T10:40:25.981Z,99698.75
2023-03-12T10:42:58.917Z,99731.16
2023-03-12T10:45:39.066Z,99724.16
2023-03-12T10:48:08.958Z,99734.00
2023-03-12T10:50:38.137Z,99734.25
2023-03-12T10:53:30.033Z,99746.91
2023-03-12T10:55:59.122Z,99721.16
2023-03-12T10:58:26.879Z,99725.56
2023-03-12T11:00:57.044Z,99725.19
2023-03-12T11:03:29.533Z,99719.50
2023-03-12T11:06:02.344Z,99739.41
2023-03-12T11:08:35.331Z,99743.59
2023-03-12T11:11:03.704Z,99752.34
2023-03-12T11:13:38.137Z,99745.53
2023-03-12T11:16:17.975Z,99763.06
2023-03-12T11:19:03.873Z,99745.63
2023-03-12T11:21:33.635Z,99755.59
2023-03-12T11:24:12.055Z,99790.31
2023-03-12T11:26:45.037Z,99799.63
2023-03-12T11:29:33.394Z,99794.34
2023-03-12T11:32:24.624Z,99797.41
2023-03-12T11:34:53.253Z,99804.78
2023-03-12T11:37:43.035Z,99819.72
2023-03-12T11:40:32.173Z,99827.19
2023-03-12T11:43:32.410Z,99812.91
2023-03-12T11:46:34.877Z,99824.28
2023-03-12T11:49:14.780Z,99834.38
2023-03-12T11:51:51.623Z,99823.53
2023-03-12T11:55:05.486Z,99853.28
2023-03-12T11:57:35.567Z,99873.13
2023-03-12T12:00:41.122Z,99882.53
2023-03-12T12:03:37.194Z,99891.16
2023-03-12T12:06:18.694Z,99884.56
2023-03-12T12:08:57.881Z,99884.56
2023-03-12T12:11:41.482Z,99894.34
2023-03-12T12:14:26.225Z,99901.59
2023-03-12T12:17:12.953Z,99898.56
2023-03-12T12:19:55.375Z,99912.59
2023-03-12T12:22:37.741Z,99925.59
2023-03-12T12:25:41.346Z,99926.63
2023-03-12T12:28:24.285Z,99938.94
2023-03-12T12:30:55.194Z,99944.16
2023-03-12T12:34:01.590Z,99937.25
2023-03-12T12:36:31.758Z,99959.03
2023-03-12T12:39:01.708Z,99964.75
2023-03-12T12:41:32.397Z,99983.34
2023-03-12T12:44:03.137Z,99993.66
2023-03-12T12:46:43.175Z,99988.75
2023-03-12T12:49:13.365Z,99989.09
2023-03-12T12:51:48.240Z,100012.75
2023-03-12T12:54:18.845Z,100018.00
2023-03-12T12:56:58.893Z,100031.66
2023-03-12T12:59:31.746Z,100048.72
2023-03-12T13:02:00.391Z,100058.66
2023-03-12T13:04:36.388Z,100053.75
2023-03-12T13:07:13.088Z,100060.69
2023-03-12T13:09:43.832Z,100071.50
2023-03-12T13:12:25.976Z,100074.06
2023-03-12T13:14:54.193Z,100038.22
2023-03-12T13:17:21.982Z,100071.00
2023-03-12T13:20:18.137Z,100097.84
2023-03-12T13:23:12.562Z,100092.44
2023-03-12T13:25:40.125Z,100108.34
2023-03-12T13:28:34.998Z,100111.38
2023-03-12T13:31:26.887Z,100113.06
2023-03-12T13:34:09.169Z,100134.94
2023-03-12T13:36:42.109Z,100143.00
2023-03-12T13:39:15.926Z,100138.97
2023-03-12T13:41:52.389Z,100156.88
2023-03-12T13:44:23.267Z,100162.00
2023-03-12T13:47:32.421Z,100176.31
2023-03-12T13:50:00.634Z,100176.22
2023-03-12T13:52:34.381Z,100188.56
2023-03-12T13:55:16.567Z,100193.78
2023-03-12T13:57:46.752Z,100182.22
2023-03-12T14:00:30.148Z,100182.06
2023-03-12T14:03:19.997Z,100174.88
2023-03-12T14:05:52.045Z,100184.06
2023-03-12T14:08:51.556Z,100191.97
2023-03-12T14:11:31.322Z,100194.16
2023-03-12T14:14:04.897Z,100189.91
2023-03-12T14:16:51.952Z,100198.97
2023-03-12T14:19:33.662Z,100204.97
2023-03-12T14:22:04.265Z,100207.03
2023-03-12T14:24:37.821Z,100210.31
2023-03-12T14:27:14.572Z,100231.56
2023-03-12T14:29:47.061Z,100229.44
2023-03-12T14:32:29.096Z,100235.47
2023-03-12T14:35:22.173Z,100231.31
2023-03-12T14:37:49.629Z,100242.13
2023-03-12T14:40:46.949Z,100252.03
2023-03-12T14:43:28.340Z,100245.72
2023-03-12T14:45:57.281Z,100269.00
2023-03-12T14:48:28.949Z,100266.38
2023-03-12T14:50:57.577Z,100267.44
2023-03-12T14:53:27.921Z,100261.94
2023-03-12T14:56:12.385Z,100263.94
2023-03-12T14:58:44.843Z,100283.06
2023-03-12T15:01:30.279Z,100288.94
2023-03-12T15:04:02.367Z,100299.63
2023-03-12T15:06:32.164Z,100297.31
2023-03-12T15:09:02.366Z,100311.22
2023-03-12T15:11:31.298Z,100313.16
2023-03-12T15:14:07.607Z,100315.63
2023-03-12T15:16:37.577Z,100325.25
2023-03-12T15:19:06.207Z,100326.78
2023-03-12T15:21:35.009Z,100338.81
2023-03-12T15:24:04.345Z,100342.06
2023-03-12T15:26:36.552Z,100349.31
2023-03-12T15:29:27.902Z,100357.19
2023-03-12T15:31:59.961Z,100353.78
2023-03-12T15:34:35.658Z,100363.66
2023-03-12T15:37:20.104Z,100368.34
2023-03-12T15:39:53.934Z,100366.56
2023-03-12T15:42:23.704Z,100376.00
2023-03-12T15:44:58.849Z,100395.44
2023-03-12T15:47:30.760Z,100398.31
2023-03-12T15:50:01.140Z,100407.00
2023-03-12T15:52:31.192Z,100415.19
2023-03-12T15:55:21.435Z,100425.22
2023-03-12T15:57:49.548Z,100431.53
2023-03-12T16:00:41.736Z,100433.91
2023-03-12T16:03:16.655Z,100451.56
2023-03-12T16:05:44.690Z,100438.13
2023-03-12T16:08:20.946Z,100461.91
2023-03-12T16:10:49.701Z,100476.88
2023-03-12T16:13:20.029Z,100471.72
2023-03-12T16:15:52.744Z,100474.75
2023-03-12T16:18:21.826Z,100497.19
2023-03-12T16:20:50.849Z,100494.94
2023-03-12T16:23:21.692Z,100504.47
2023-03-12T16:25:53.517Z,100510.31
2023-03-12T16:28:21.217Z,100522.56
2023-03-12T16:30:49.801Z,100522.41
2023-03-12T16:33:19.789Z,100529.22
2023-03-12T16:35:47.872Z,100536.47
2023-03-12T16:38:15.950Z,100539.16
2023-03-12T16:40:47.187Z,100544.13
2023-03-12T16:43:20.102Z,100545.38
2023-03-12T16:45:47.923Z,100559.72
2023-03-12T16:48:17.506Z,100557.31
2023-03-12T16:50:53.265Z,100569.25
2023-03-12T16:53:22.043Z,100566.84
2023-03-12T16:55:55.718Z,100568.25
2023-03-12T16:58:24.523Z,100574.47
2023-03-12T17:00:53.144Z,100576.78
2023-03-12T17:03:36.477Z,100585.97
2023-03-12T17:06:06.527Z,100584.84
2023-03-12T17:08:36.170Z,100594.75
2023-03-12T17:11:14.716Z,100598.56
2023-03-12T17:13:42.263Z,100588.38
2023-03-12T17:16:12.496Z,100601.41
2023-03-12T17:18:40.841Z,100605.09
2023-03-12T17:21:11.647Z,100608.63
2023-03-12T17:23:39.318Z,100616.44
2023-03-12T17:26:06.998Z,100620.09
2023-03-12T17:28:34.748Z,100625.09
2023-03-12T17:31:02.471Z,100632.66
2023-03-12T17:33:30.446Z,100632.09
2023-03-12T17:36:02.652Z,100638.50
2023-03-12T17:38:31.675Z,100643.69
2023-03-12T17:40:59.755Z,100642.72
2023-03-12T17:43:28.019Z,100652.38
2023-03-12T17:45:55.731Z,100653.59
2023-03-12T17:48:24.900Z,100661.06
2023-03-12T17:50:52.426Z,100664.66
2023-03-12T17:53:19.931Z,100665.66
2023-03-12T17:55:48.254Z,100666.63
2023-03-12T17:58:16.800Z,100675.03
2023-03-12T18:00:46.612Z,100685.66
2023-03-12T18:03:14.421Z,100684.75
2023-03-12T18:05:43.224Z,100688.44
2023-03-12T18:08:11.270Z,100697.97
2023-03-12T18:10:40.678Z,100702.19
2023-03-12T18:13:08.731Z,100694.81
2023-03-12T18:15:37.330Z,100701.88
2023-03-12T18:18:13.919Z,100705.59
2023-03-12T18:20:43.341Z,100707.28
2023-03-12T18:23:11.465Z,100711.91
2023-03-12T18:25:39.096Z,100717.47
2023-03-12T18:28:06.824Z,100713.72
2023-03-12T18:30:34.482Z,100726.88
2023-03-12T18:33:03.208Z,100720.91
2023-03-12T18:35:31.237Z,100729.88
2023-03-12T18:37:59.178Z,100723.72
2023-03-12T18:40:29.227Z,100728.66
2023-03-12T18:43:00.246Z,100730.88
2023-03-12T18:45:28.019Z,100731.91
2023-03-12T18:47:56.424Z,100729.34
2023-03-12T18:50:25.125Z,100740.84
2023-03-12T18:52:52.799Z,100743.44
2023-03-12T18:55:20.434Z,100750.88
2023-03-12T18:57:48.150Z,100748.75
2023-03-12T19:00:20.119Z,100753.44
2023-03-12T19:02:48.912Z,100752.56
2023-03-12T19:05:16.625Z,100767.69
2023-03-12T19:07:44.370Z,100766.13
2023-03-12T19:10:12.361Z,100772.53
2023-03-12T19:12:51.424Z,100778.84
2023-03-12T19:15:24.115Z,100779.19
2023-03-12T19:17:54.327Z,100799.59
2023-03-12T19:20:22.120Z,100800.72
2023-03-12T19:22:50.073Z,100796.72
2023-03-12T19:25:20.115Z,100798.03
2023-03-12T19:27:50.491Z,100807.22
2023-03-12T19:30:18.397Z,100798.94
2023-03-12T19:32:46.120Z,100809.50
2023-03-12T19:35:14.542Z,100800.69
2023-03-12T19:37:42.684Z,100807.34
2023-03-12T19:40:11.151Z,100805.16
2023-03-12T19:42:39.423Z,100813.03
2023-03-12T19:45:07.379Z,100814.25
2023-03-12T19:47:35.944Z,100808.41
2023-03-12T19:50:04.462Z,100814.38
2023-03-12T19:52:33.115Z,100812.66
2023-03-12T19:55:05.016Z,100820.13
2023-03-12T19:57:35.450Z,100815.13
2023-03-12T20:00:07.188Z,100818.63
2023-03-12T20:02:36.583Z,100825.38
2023-03-12T20:05:07.033Z,100822.81
2023-03-12T20:07:35.272Z,100822.28
2023-03-12T20:10:05.827Z,100828.06
2023-03-12T20:12:33.540Z,100829.66
2023-03-12T20:15:01.212Z,100831.84
2023-03-12T20:17:29.468Z,100842.41
2023-03-12T20:19:58.275Z,100839.50
2023-03-12T20:22:26.370Z,100839.34
2023-03-12T20:24:55.786Z,100839.97
2023-03-12T20:27:23.352Z,100852.03
2023-03-12T20:29:50.989Z,100854.84
2023-03-12T20:32:21.363Z,100848.63
2023-03-12T20:34:49.047Z,100846.19
2023-03-12T20:37:18.141Z,100848.97
2023-03-12T20:39:46.402Z,100852.63
2023-03-12T20:42:13.965Z,100854.53
2023-03-12T20:44:41.880Z,100850.84
2023-03-12T20:47:09.410Z,100851.44
2023-03-12T20:49:37.123Z,100864.44
2023-03-12T20:52:05.062Z,100859.00
2023-03-12T20:54:33.033Z,100865.13
2023-03-12T20:57:00.580Z,100859.38
2023-03-12T20:59:28.074Z,100877.72
2023-03-12T21:01:55.700Z,100870.91
2023-03-12T21:04:23.320Z,100870.50
2023-03-12T21:06:51.855Z,100877.72
2023-03-12T21:09:21.698Z,100877.25
2023-03-12T21:11:50.274Z,100888.34
2023-03-12T21:14:17.905Z,100876.28
2023-03-12T21:16:46.466Z,100872.47
2023-03-12T21:19:15.070Z,100885.53
2023-03-12T21:21:43.343Z,100889.53
2023-03-12T21:24:11.308Z,100895.25
2023-03-12T21:26:46.700Z,100905.50
2023-03-12T21:29:14.295Z,100898.16
2023-03-12T21:31:41.956Z,100907.53
2023-03-12T21:34:09.846Z,100910.63
2023-03-12T21:36:37.570Z,100910.63
2023-03-12T21:39:05.856Z,100921.00
2023-03-12T21:41:33.422Z,100923.06
2023-03-12T21:44:02.849Z,100926.22
2023-03-12T21:46:30.809Z,100928.59
2023-03-12T21:48:58.897Z,100934.84
2023-03-12T21:51:26.518Z,100934.59
2023-03-12T21:53:58.101Z,100938.91
2023-03-12T21:56:29.434Z,100938.69
2023-03-12T21:58:57.461Z,100944.31
2023-03-12T22:01:25.266Z,100940.38
2023-03-12T22:03:54.200Z,100958.03
2023-03-12T22:06:21.883Z,100952.66
2023-03-12T22:08:52.416Z,100955.34
2023-03-12T22:11:20.925Z,100958.59
2023-03-12T22:13:48.691Z,100960.19
2023-03-12T22:16:16.378Z,100972.28
2023-03-12T22:18:45.236Z,100965.03
2023-03-12T22:21:20.073Z,100977.72
2023-03-12T22:23:51.138Z,100977.19
2023-03-12T22:26:19.854Z,100986.25
2023-03-12T22:28:52.538Z,100986.25
2023-03-12T22:31:20.797Z,100986.25
2023-03-12T22:33:48.696Z,100989.47
2023-03-12T22:36:16.489Z,100990.44
2023-03-12T22:38:44.382Z,100999.84
2023-03-12T22:41:20.688Z,100994.56
2023-03-12T22:43:49.316Z,101005.31
2023-03-12T22:46:20.321Z,101002.38
2023-03-12T22:48:52.596Z,101012.22
2023-03-12T22:51:20.168Z,101007.59
2023-03-12T22:53:48.421Z,101007.19
2023-03-12T22:56:16.002Z,101012.03
2023-03-12T22:58:43.677Z,101010.94
2023-03-12T23:01:12.763Z,101022.41
2023-03-12T23:03:41.268Z,101034.19
2023-03-12T23:06:17.069Z,101032.06
2023-03-12T23:08:47.105Z,101036.19
2023-03-12T23:11:25.540Z,101036.41
2023-03-12T23:13:54.484Z,101044.34
2023-03-12T23:16:24.039Z,101053.16
2023-03-12T23:18:55.323Z,101056.94
2023-03-12T23:21:23.706Z,101051.53
2023-03-12T23:23:51.505Z,101055.50
2023-03-12T23:26:26.958Z,101063.56
2023-03-12T23:28:55.404Z,101067.47
2023-03-12T23:31:24.050Z,101070.78
2023-03-12T23:33:51.943Z,101073.72
2023-03-12T23:36:30.999Z,101078.72
2023-03-12T23:38:58.568Z,101081.56
2023-03-12T23:41:29.436Z,101089.78
2023-03-12T23:43:59.472Z,101085.25
2023-03-12T23:46:27.605Z,101084.78
2023-03-12T23:49:00.205Z,101094.06
2023-03-12T23:51:32.433Z,101097.38
2023-03-12T23:54:02.309Z,101097.59
2023-03-12T23:56:35.144Z,101094.78
2023-03-12T23:59:03.319Z,101093.19
